Observation data for Seminole on 12/07/2018      Previous  Date       Current Mesonet Observations  Soil Data  Daily Summary Page  Observations in Plain Language
KSM1 070600Z 04006KT 02/M02 A303 RMK A01 T00161024  RH  075%=      5-min Rain = 0
KSM1 070605Z 04007KT 02/M03 A303 RMK A01 T00161025  RH  075%=      5-min Rain = 0
KSM1 070610Z 04007KT 02/M03 A303 RMK A01 T00161025  RH  075%=      5-min Rain = 0
KSM1 070615Z 04006KT 02/M03 A303 RMK A01 T00161025  RH  075%=      5-min Rain = 0
KSM1 070620Z 05006KT 02/M03 A303 RMK A01 T00161026  RH  075%=      5-min Rain = 0
KSM1 070625Z 05008KT 02/M03 A3029 RMK A01 T00161026  RH  074%=      5-min Rain = 0
KSM1 070630Z 06009KT 02/M03 A3028 RMK A01 T00161026  RH  074%=      5-min Rain = 0
KSM1 070635Z 06009KT 02/M03 A3028 RMK A01 T00151026  RH  074%=      5-min Rain = 0
KSM1 070640Z 06007KT 02/M03 A3028 RMK A01 T00151026  RH  075%=      5-min Rain = 0
KSM1 070645Z 05007KT 01/M03 A3028 RMK A01 T00141027  RH  075%=      5-min Rain = 0
KSM1 070650Z 05006KT 01/M03 A3028 RMK A01 T00141026  RH  075%=      5-min Rain = 0
KSM1 070655Z 05006KT 01/M03 A3029 RMK A01 T00141027  RH  075%=      5-min Rain = 0
KSM1 070700Z 06005KT 01/M03 A3029 RMK A01 T00131027  RH  075%=      5-min Rain = 0
KSM1 070705Z 06005KT 01/M03 A3029 RMK A01 T00131027  RH  075%=      5-min Rain = 0
KSM1 070710Z 05005KT 01/M03 A3029 RMK A01 T00131026  RH  076%=      5-min Rain = 0
KSM1 070715Z 06006KT 01/M03 A3029 RMK A01 T00131026  RH  076%=      5-min Rain = 0
KSM1 070720Z 05006KT 01/M03 A3029 RMK A01 T00131026  RH  076%=      5-min Rain = 0
KSM1 070725Z 03005KT 01/M03 A303 RMK A01 T00141026  RH  075%=      5-min Rain = 0
KSM1 070730Z 02006KT 01/M03 A303 RMK A01 T00141027  RH  075%=      5-min Rain = 0
KSM1 070735Z 01006KT 01/M03 A303 RMK A01 T00141027  RH  075%=      5-min Rain = 0
KSM1 070740Z 02007KT 01/M03 A303 RMK A01 T00141027  RH  075%=      5-min Rain = 0
KSM1 070745Z 01007KT 01/M03 A303 RMK A01 T00141026  RH  075%=      5-min Rain = 0
KSM1 070750Z 01006KT 01/M03 A303 RMK A01 T00141026  RH  075%=      5-min Rain = 0
KSM1 070755Z 01008KT 01/M03 A3029 RMK A01 T00131026  RH  076%=      5-min Rain = 0
KSM1 070800Z 01007KT 01/M03 A3029 RMK A01 T00131026  RH  076%=      5-min Rain = 0
KSM1 070805Z 01008KT 01/M03 A3029 RMK A01 T00131026  RH  076%=      5-min Rain = 0
KSM1 070810Z 01007KT 01/M03 A303 RMK A01 T00121025  RH  077%=      5-min Rain = 0
KSM1 070815Z 36007KT 01/M02 A303 RMK A01 T00121023  RH  078%=      5-min Rain = 0
KSM1 070820Z 00008KT 01/M02 A303 RMK A01 T00111023  RH  078%=      5-min Rain = 0
KSM1 070825Z 00008KT 01/M02 A303 RMK A01 T00111024  RH  078%=      5-min Rain = 0
KSM1 070830Z 01008KT 01/M02 A303 RMK A01 T00111024  RH  078%=      5-min Rain = 0
KSM1 070835Z 00008KT 01/M02 A303 RMK A01 T00111024  RH  078%=      5-min Rain = 0
KSM1 070840Z 01009KT 01/M02 A303 RMK A01 T00111022  RH  079%=      5-min Rain = 0
KSM1 070845Z 02011KT 01/M02 A3029 RMK A01 T00091022  RH  080%=      5-min Rain = 0
KSM1 070850Z 02011KT 01/M02 A3028 RMK A01 T00091022  RH  081%=      5-min Rain = 0
KSM1 070855Z 02011KT 01/M02 A3028 RMK A01 T00081023  RH  080%=      5-min Rain = 0
KSM1 070900Z 04008KT 01/M02 A3028 RMK A01 T00081024  RH  080%=      5-min Rain = 0
KSM1 070905Z 04009KT 01/M02 A3028 RMK A01 T00081024  RH  080%=      5-min Rain = 0
KSM1 070910Z 04008KT 01/M02 A3028 RMK A01 T00081024  RH  080%=      5-min Rain = 0
KSM1 070915Z 06009KT 01/M02 A3027 RMK A01 T00081024  RH  079%=      5-min Rain = 0
KSM1 070920Z 08009KT 01/M02 A3026 RMK A01 T00081024  RH  080%=      5-min Rain = 0
KSM1 070925Z 09010KT 01/M02 A3025 RMK A01 T00081024  RH  080%=      5-min Rain = 0
KSM1 070930Z 09009KT 01/M02 A3025 RMK A01 T00081024  RH  080%=      5-min Rain = 0
KSM1 070935Z 09009KT 01/M03 A3025 RMK A01 T00081025  RH  079%=      5-min Rain = 0
KSM1 070940Z 09010KT 01/M03 A3025 RMK A01 T00081027  RH  078%=      5-min Rain = 0
KSM1 070945Z 07007KT 01/M03 A3026 RMK A01 T00081028  RH  078%=      5-min Rain = 0
KSM1 070950Z 08008KT 01/M03 A3026 RMK A01 T00081029  RH  077%=      5-min Rain = 0
KSM1 070955Z 09007KT 01/M03 A3026 RMK A01 T00081029  RH  077%=      5-min Rain = 0
KSM1 071000Z 09007KT 01/M03 A3027 RMK A01 T00081029  RH  077%=      5-min Rain = 0
KSM1 071005Z 08007KT 01/M03 A3027 RMK A01 T00081030  RH  076%=      5-min Rain = 0
KSM1 071010Z 08008KT 01/M03 A3027 RMK A01 T00081030  RH  076%=      5-min Rain = 0
KSM1 071015Z 08007KT 01/M03 A3026 RMK A01 T00071027  RH  079%=      5-min Rain = 0
KSM1 071020Z 08007KT 01/M03 A3026 RMK A01 T00071026  RH  079%=      5-min Rain = 0
KSM1 071025Z 07007KT 01/M02 A3026 RMK A01 T00061024  RH  081%=      5-min Rain = 0
KSM1 071030Z 06006KT 01/M02 A3026 RMK A01 T00061024  RH  081%=      5-min Rain = 0
KSM1 071035Z 07008KT 01/M02 A3025 RMK A01 T00061023  RH  082%=      5-min Rain = 0
KSM1 071040Z 05006KT 01/M02 A3025 RMK A01 T00051020  RH  084%=      5-min Rain = 0
KSM1 071045Z 04009KT 01/M02 A3024 RMK A01 T00051019  RH  085%=      5-min Rain = 0
KSM1 071050Z 03007KT 01/M02 A3024 RMK A01 T00051018  RH  086%=      5-min Rain = 0
KSM1 071055Z 05005KT 01/M02 A3025 RMK A01 T00051018  RH  085%=      5-min Rain = 0
KSM1 071100Z 07005KT 01/M02 A3025 RMK A01 T00051018  RH  086%=      5-min Rain = 0
KSM1 071105Z 07005KT 01/M02 A3025 RMK A01 T00051017  RH  086%=      5-min Rain = 0
KSM1 071110Z 07005KT 01/M02 A3025 RMK A01 T00051017  RH  086%=      5-min Rain = 0
KSM1 071115Z 07005KT 01/M02 A3025 RMK A01 T00051018  RH  086%=      5-min Rain = 0
KSM1 071120Z 07006KT 00/M02 A3025 RMK A01 T00041019  RH  085%=      5-min Rain = 0
KSM1 071125Z 05004KT 01/M02 A3026 RMK A01 T00051018  RH  085%=      5-min Rain = 0
KSM1 071130Z 05004KT 01/M02 A3027 RMK A01 T00051019  RH  084%=      5-min Rain = 0
KSM1 071135Z 04005KT 01/M02 A3026 RMK A01 T00051021  RH  083%=      5-min Rain = 0
KSM1 071140Z 05004KT 01/M02 A3026 RMK A01 T00051020  RH  084%=      5-min Rain = 0
KSM1 071145Z 06003KT 01/M02 A3027 RMK A01 T00061020  RH  084%=      5-min Rain = 0
KSM1 071150Z 06002KT 01/M02 A3027 RMK A01 T00061019  RH  084%=      5-min Rain = 0
KSM1 071155Z 06002KT 01/M02 A3027 RMK A01 T00061020  RH  084%=      5-min Rain = 0
KSM1 071200Z 07001KT 01/M02 A3028 RMK A01 T00061021  RH  083%=      5-min Rain = 0
KSM1 071205Z 07001KT 01/M02 A3028 RMK A01 T00071020  RH  083%=      5-min Rain = 0
KSM1 071210Z 06002KT 01/M02 A3028 RMK A01 T00071020  RH  083%=      5-min Rain = 0
KSM1 071215Z 06004KT 01/M02 A3027 RMK A01 T00071020  RH  083%=      5-min Rain = 0
KSM1 071220Z 06004KT 01/M02 A3027 RMK A01 T00071019  RH  084%=      5-min Rain = 0
KSM1 071225Z 05004KT 01/M02 A3027 RMK A01 T00071018  RH  084%=      5-min Rain = 0
KSM1 071230Z 04004KT 01/M02 A3027 RMK A01 T00071018  RH  084%=      5-min Rain = 0
KSM1 071235Z 03004KT 01/M02 A3028 RMK A01 T00071018  RH  084%=      5-min Rain = 0
KSM1 071240Z 04005KT 01/M02 A3027 RMK A01 T00061020  RH  084%=      5-min Rain = 0
KSM1 071245Z 04005KT 01/M02 A3027 RMK A01 T00061019  RH  084%=      5-min Rain = 0
KSM1 071250Z 03005KT 01/M02 A3027 RMK A01 T00061018  RH  085%=      5-min Rain = 0
KSM1 071255Z 03005KT 01/M02 A3027 RMK A01 T00051018  RH  085%=      5-min Rain = 0
KSM1 071300Z 04005KT 01/M02 A3027 RMK A01 T00061017  RH  085%=      5-min Rain = 0
KSM1 071305Z 04004KT 01/M02 A3028 RMK A01 T00061017  RH  085%=      5-min Rain = 0
KSM1 071310Z 04004KT 01/M02 A3028 RMK A01 T00071018  RH  084%=      5-min Rain = 0
KSM1 071315Z 04003KT 01/M02 A3028 RMK A01 T00071018  RH  084%=      5-min Rain = 0
KSM1 071320Z 04005KT 01/M02 A3028 RMK A01 T00071017  RH  085%=      5-min Rain = 0
KSM1 071325Z 04004KT 01/M02 A3028 RMK A01 T00061017  RH  085%=      5-min Rain = 0
KSM1 071330Z 03004KT 01/M02 A3028 RMK A01 T00061016  RH  086%=      5-min Rain = 0
KSM1 071335Z 03005KT 01/M02 A3028 RMK A01 T00061016  RH  086%=      5-min Rain = 0
KSM1 071340Z 03004KT 01/M02 A3028 RMK A01 T00061016  RH  086%=      5-min Rain = 0
KSM1 071345Z 05004KT 01/M02 A3028 RMK A01 T00061015  RH  087%=      5-min Rain = 0
KSM1 071350Z 05004KT 01/M02 A3028 RMK A01 T00061016  RH  086%=      5-min Rain = 0
KSM1 071355Z 03004KT 01/M02 A3029 RMK A01 T00071016  RH  086%=      5-min Rain = 0
KSM1 071400Z 03004KT 01/M02 A3028 RMK A01 T00081015  RH  086%=      5-min Rain = 0
KSM1 071405Z 03005KT 01/M02 A3029 RMK A01 T00081015  RH  085%=      5-min Rain = 0
KSM1 071410Z 03005KT 01/M02 A3029 RMK A01 T00091018  RH  083%=      5-min Rain = 0
KSM1 071415Z 02006KT 01/M02 A3029 RMK A01 T00091018  RH  083%=      5-min Rain = 0
KSM1 071420Z 02005KT 01/M02 A303 RMK A01 T00091018  RH  083%=      5-min Rain = 0
KSM1 071425Z 01006KT 01/M02 A303 RMK A01 T00101016  RH  084%=      5-min Rain = 0
KSM1 071430Z 01006KT 01/M02 A303 RMK A01 T00101016  RH  083%=      5-min Rain = 0
KSM1 071435Z 02005KT 01/M02 A303 RMK A01 T00111016  RH  083%=      5-min Rain = 0
KSM1 071440Z 02005KT 01/M02 A303 RMK A01 T00111016  RH  083%=      5-min Rain = 0
KSM1 071445Z 03005KT 01/M02 A303 RMK A01 T00121016  RH  083%=      5-min Rain = 0
KSM1 071450Z 04006KT 01/M02 A303 RMK A01 T00111016  RH  083%=      5-min Rain = 0
KSM1 071455Z 03005KT 01/M02 A303 RMK A01 T00121016  RH  083%=      5-min Rain = 0
KSM1 071500Z 02005KT 01/M02 A3031 RMK A01 T00121016  RH  083%=      5-min Rain = 0
KSM1 071505Z 04005KT 01/M02 A3031 RMK A01 T00121015  RH  083%=      5-min Rain = 0
KSM1 071510Z 05005KT 01/M01 A303 RMK A01 T00131014  RH  083%=      5-min Rain = 0
KSM1 071515Z 04006KT 01/M01 A303 RMK A01 T00131014  RH  083%=      5-min Rain = 0
KSM1 071520Z 04005KT 01/M01 A303 RMK A01 T00141012  RH  084%=      5-min Rain = 0
KSM1 071525Z 05006KT 01/M01 A3029 RMK A01 T00141011  RH  084%=      5-min Rain = 0
KSM1 071530Z 04006KT 01/M01 A3029 RMK A01 T00141010  RH  085%=      5-min Rain = 0
KSM1 071535Z 03005KT 02/M01 A303 RMK A01 T00151010  RH  085%=      5-min Rain = 0
KSM1 071540Z 04007KT 02/M01 A303 RMK A01 T00151010  RH  085%=      5-min Rain = 0
KSM1 071545Z 04006KT 02/M01 A303 RMK A01 T00151009  RH  085%=      5-min Rain = 0
KSM1 071550Z 05007KT 02/M01 A303 RMK A01 T00161009  RH  085%=      5-min Rain = 0
KSM1 071555Z 06006KT 02/M01 A303 RMK A01 T00161008  RH  085%=      5-min Rain = 0
KSM1 071600Z 06007KT 02/M01 A303 RMK A01 T00171008  RH  085%=      5-min Rain = 0
KSM1 071605Z 05007KT 02/M01 A303 RMK A01 T00181007  RH  084%=      5-min Rain = 0
KSM1 071610Z 06007KT 02/M01 A303 RMK A01 T00171009  RH  084%=      5-min Rain = 0
KSM1 071615Z 05007KT 02/M01 A303 RMK A01 T00171008  RH  084%=      5-min Rain = 0
KSM1 071620Z 06007KT 02/M01 A303 RMK A01 T00171008  RH  084%=      5-min Rain = 0
KSM1 071625Z 06008KT 02/M01 A303 RMK A01 T00181007  RH  084%=      5-min Rain = 0
KSM1 071630Z 06008KT 02/M01 A303 RMK A01 T00171009  RH  084%=      5-min Rain = 0
KSM1 071635Z 06008KT 02/M01 A303 RMK A01 T00181010  RH  083%=      5-min Rain = 0
KSM1 071640Z 06008KT 02/M01 A303 RMK A01 T00181010  RH  082%=      5-min Rain = 0
KSM1 071645Z 05008KT 02/M01 A303 RMK A01 T00191010  RH  082%=      5-min Rain = 0
KSM1 071650Z 05007KT 02/M01 A303 RMK A01 T00201008  RH  082%=      5-min Rain = 0
KSM1 071655Z 05007KT 02/M01 A303 RMK A01 T00201009  RH  082%=      5-min Rain = 0
KSM1 071700Z 06007KT 02/M01 A303 RMK A01 T00201009  RH  082%=      5-min Rain = 0
KSM1 071705Z 06007KT 02/M01 A3029 RMK A01 T00211008  RH  082%=      5-min Rain = 0
KSM1 071710Z 05007KT 02/M01 A3029 RMK A01 T00201010  RH  081%=      5-min Rain = 0
KSM1 071715Z 06007KT 02/M01 A3028 RMK A01 T00211009  RH  082%=      5-min Rain = 0
KSM1 071720Z 07006KT 02/M01 A3028 RMK A01 T00211009  RH  081%=      5-min Rain = 0
KSM1 071725Z 08007KT 02/M01 A3028 RMK A01 T00211009  RH  081%=      5-min Rain = 0
KSM1 071730Z 08007KT 02/M01 A3028 RMK A01 T00211009  RH  082%=      5-min Rain = 0
KSM1 071735Z 08007KT 02/M01 A3028 RMK A01 T00211009  RH  082%=      5-min Rain = 0
KSM1 071740Z 07008KT 02/M01 A3027 RMK A01 T00211008  RH  082%=      5-min Rain = 0
KSM1 071745Z 08008KT 02/M01 A3027 RMK A01 T00221009  RH  081%=      5-min Rain = 0
KSM1 071750Z 07007KT 02/M01 A3027 RMK A01 T00221008  RH  082%=      5-min Rain = 0
KSM1 071755Z 07007KT 02/M01 A3027 RMK A01 T00231006  RH  082%=      5-min Rain = 0
KSM1 071800Z 05007KT 02/M01 A3027 RMK A01 T00231008  RH  081%=      5-min Rain = 0
KSM1 071805Z 04008KT 02/M01 A3026 RMK A01 T00231007  RH  081%=      5-min Rain = 0
KSM1 071810Z 05008KT 02/M01 A3026 RMK A01 T00231006  RH  082%=      5-min Rain = 0
KSM1 071815Z 05007KT 02/M01 A3026 RMK A01 T00241006  RH  082%=      5-min Rain = 0
KSM1 071820Z 05007KT 02/M01 A3026 RMK A01 T00241006  RH  081%=      5-min Rain = 0
KSM1 071825Z 04008KT 03/M01 A3025 RMK A01 T00251006  RH  081%=      5-min Rain = 0
KSM1 071830Z 05007KT 03/M01 A3025 RMK A01 T00251006  RH  081%=      5-min Rain = 0
KSM1 071835Z 05008KT 03/M01 A3025 RMK A01 T00251005  RH  081%=      5-min Rain = 0
KSM1 071840Z 05007KT 03/M00 A3024 RMK A01 T00271003  RH  082%=      5-min Rain = 0
KSM1 071845Z 05008KT 03/M00 A3024 RMK A01 T00281004  RH  081%=      5-min Rain = 0
KSM1 071850Z 05006KT 03/M00 A3024 RMK A01 T00271003  RH  081%=      5-min Rain = 0
KSM1 071855Z 04005KT 03/M00 A3024 RMK A01 T00281002  RH  081%=      5-min Rain = 0
KSM1 071900Z 05005KT 03/M00 A3024 RMK A01 T00291002  RH  081%=      5-min Rain = 0
KSM1 071905Z 03005KT 03/M00 A3024 RMK A01 T00301002  RH  081%=      5-min Rain = 0
KSM1 071910Z 02006KT 03/M00 A3024 RMK A01 T00291002  RH  081%=      5-min Rain = 0
KSM1 071915Z 03006KT 03/M00 A3024 RMK A01 T00301002  RH  081%=      5-min Rain = 0
KSM1 071920Z 03007KT 03/M00 A3023 RMK A01 T00291003  RH  080%=      5-min Rain = 0
KSM1 071925Z 04006KT 03/M00 A3023 RMK A01 T00291001  RH  081%=      5-min Rain = 0
KSM1 071930Z 04007KT 03/M00 A3023 RMK A01 T00301002  RH  081%=      5-min Rain = 0
KSM1 071935Z 03007KT 03/00 A3023 RMK A01 T003000-0  RH  081%=      5-min Rain = 0
KSM1 071940Z 05006KT 03/00 A3022 RMK A01 T003200-0  RH  081%=      5-min Rain = 0
KSM1 071945Z 04006KT 03/M00 A3022 RMK A01 T00321001  RH  080%=      5-min Rain = 0
KSM1 071950Z 04006KT 03/00 A3022 RMK A01 T003200-0  RH  080%=      5-min Rain = 0
KSM1 071955Z 04007KT 03/M00 A3023 RMK A01 T00321001  RH  080%=      5-min Rain = 0
KSM1 072000Z 03007KT 03/00 A3022 RMK A01 T003100-0  RH  081%=      5-min Rain = 0
KSM1 072005Z 02007KT 03/00 A3022 RMK A01 T00310000  RH  081%=      5-min Rain = 0
KSM1 072010Z 02007KT 03/00 A3022 RMK A01 T00310000  RH  081%=      5-min Rain = 0
KSM1 072015Z 02008KT 03/M00 A3022 RMK A01 T00311001  RH  080%=      5-min Rain = 0
KSM1 072020Z 00007KT 03/M00 A3022 RMK A01 T00321001  RH  080%=      5-min Rain = 0
KSM1 072025Z 01008KT 03/00 A3022 RMK A01 T003300-0  RH  080%=      5-min Rain = 0
KSM1 072030Z 01009KT 03/M00 A3022 RMK A01 T00321001  RH  080%=      5-min Rain = 0
KSM1 072035Z 02009KT 03/M00 A3022 RMK A01 T00311001  RH  080%=      5-min Rain = 0
KSM1 072040Z 02007KT 03/00 A3022 RMK A01 T00310000  RH  081%=      5-min Rain = 0
KSM1 072045Z 01008KT 03/00 A3022 RMK A01 T00320000  RH  080%=      5-min Rain = 0
KSM1 072050Z 02007KT 03/00 A3021 RMK A01 T00320001  RH  081%=      5-min Rain = 0
KSM1 072055Z 03008KT 03/00 A3021 RMK A01 T00320001  RH  081%=      5-min Rain = 0
KSM1 072100Z 03008KT 03/00 A3021 RMK A01 T00320002  RH  082%=      5-min Rain = 0
KSM1 072105Z 03009KT 03/00 A302 RMK A01 T00310001  RH  081%=      5-min Rain = 0
KSM1 072110Z 04009KT 03/00 A3019 RMK A01 T00310001  RH  081%=      5-min Rain = 0
KSM1 072115Z 05008KT 03/00 A3019 RMK A01 T00320000  RH  080%=      5-min Rain = 0
KSM1 072120Z 04009KT 03/00 A3019 RMK A01 T00330000  RH  080%=      5-min Rain = 0
KSM1 072125Z 04009KT 03/00 A3019 RMK A01 T00320001  RH  081%=      5-min Rain = 0
KSM1 072130Z 04010KT 03/00 A3019 RMK A01 T003200-0  RH  080%=      5-min Rain = 0
KSM1 072135Z 04009KT 03/00 A3019 RMK A01 T003200-0  RH  080%=      5-min Rain = 0
KSM1 072140Z 04008KT 03/00 A3019 RMK A01 T00320000  RH  081%=      5-min Rain = 0
KSM1 072145Z 04008KT 03/00 A302 RMK A01 T00320001  RH  081%=      5-min Rain = 0
KSM1 072150Z 04007KT 03/00 A302 RMK A01 T00320002  RH  081%=      5-min Rain = 0
KSM1 072155Z 04007KT 03/00 A3021 RMK A01 T00320001  RH  081%=      5-min Rain = 0
KSM1 072200Z 05006KT 03/00 A3021 RMK A01 T00310001  RH  082%=      5-min Rain = 0
KSM1 072205Z 05005KT 03/00 A3021 RMK A01 T00310001  RH  082%=      5-min Rain = 0
KSM1 072210Z 06006KT 03/00 A3021 RMK A01 T00310001  RH  082%=      5-min Rain = 0
KSM1 072215Z 04005KT 03/00 A3022 RMK A01 T00310001  RH  082%=      5-min Rain = 0
KSM1 072220Z 05005KT 03/00 A3022 RMK A01 T00300001  RH  082%=      5-min Rain = 0
KSM1 072225Z 07006KT 03/00 A3022 RMK A01 T00300001  RH  082%=      5-min Rain = 0
KSM1 072230Z 07006KT 03/00 A3021 RMK A01 T00300002  RH  083%=      5-min Rain = 0
KSM1 072235Z 06006KT 03/00 A3021 RMK A01 T00300001  RH  082%=      5-min Rain = 0
KSM1 072240Z 06007KT 03/00 A3021 RMK A01 T00300000  RH  082%=      5-min Rain = 0
KSM1 072245Z 06007KT 03/M00 A3021 RMK A01 T00301001  RH  082%=      5-min Rain = 0
KSM1 072250Z 06007KT 03/00 A3021 RMK A01 T003000-0  RH  082%=      5-min Rain = 0
KSM1 072255Z 06008KT 03/M00 A3021 RMK A01 T00291001  RH  082%=      5-min Rain = 0
KSM1 072300Z 06008KT 03/M00 A302 RMK A01 T00291001  RH  082%=      5-min Rain = 0
KSM1 072305Z 06009KT 03/M00 A302 RMK A01 T00291001  RH  082%=      5-min Rain = 0
KSM1 072310Z 04009KT 03/00 A302 RMK A01 T00280000  RH  083%=      5-min Rain = 0
KSM1 072315Z 05009KT 03/00 A302 RMK A01 T00280001  RH  083%=      5-min Rain = 0
KSM1 072320Z 05009KT 03/00 A302 RMK A01 T00280002  RH  084%=      5-min Rain = 0
KSM1 072325Z 05009KT 03/00 A302 RMK A01 T00280001  RH  084%=      5-min Rain = 0
KSM1 072330Z 05009KT 03/00 A302 RMK A01 T00270001  RH  084%=      5-min Rain = 0
KSM1 072335Z 05009KT 03/00 A302 RMK A01 T00260001  RH  085%=      5-min Rain = 0
KSM1 072340Z 05010KT 03/00 A302 RMK A01 T00260001  RH  085%=      5-min Rain = 0
KSM1 072345Z 05010KT 03/00 A302 RMK A01 T00260002  RH  085%=      5-min Rain = 0
KSM1 072350Z 05011KT 03/00 A3019 RMK A01 T00250002  RH  086%=      5-min Rain = 0
KSM1 072355Z 05010KT 03/00 A302 RMK A01 T00250002  RH  086%=      5-min Rain = 0
KSM1 080000Z 05010KT 02/00 A302 RMK A01 T00240002  RH  086%=      5-min Rain = 0
KSM1 080005Z 06009KT 02/00 A302 RMK A01 T00240003  RH  087%=      5-min Rain = 0
KSM1 080010Z 05008KT 02/00 A3021 RMK A01 T00240003  RH  087%=      5-min Rain = 0
KSM1 080015Z 05011KT 02/00 A3021 RMK A01 T00230003  RH  088%=      5-min Rain = 0
KSM1 080020Z 06011KT 02/00 A3021 RMK A01 T00230004  RH  088%=      5-min Rain = 0
KSM1 080025Z 06009KT 02/00 A3022 RMK A01 T00220004  RH  089%=      5-min Rain = 0
KSM1 080030Z 05010KT 02/00 A3022 RMK A01 T00210004  RH  090%=      5-min Rain = 0
KSM1 080035Z 07009KT 02/01 A3023 RMK A01 T00200005  RH  091%=      5-min Rain = 0
KSM1 080040Z 07008KT 02/01 A3024 RMK A01 T00190006  RH  092%=      5-min Rain = 0
KSM1 080045Z 07009KT 02/01 A3023 RMK A01 T00190007  RH  093%=      5-min Rain = 0
KSM1 080050Z 07010KT 02/01 A3023 RMK A01 T00180007  RH  094%=      5-min Rain = 0
KSM1 080055Z 07009KT 02/01 A3023 RMK A01 T00170007  RH  094%=      5-min Rain = 0
KSM1 080100Z 08009KT 02/01 A3023 RMK A01 T00170007  RH  094%=      5-min Rain = 0
KSM1 080105Z 07010KT 02/01 A3023 RMK A01 T00160007  RH  095%=      5-min Rain = 0
KSM1 080110Z 07010KT 02/01 A3023 RMK A01 T00160007  RH  095%=      5-min Rain = 0
KSM1 080115Z 06011KT 02/01 A3022 RMK A01 T00150006  RH  095%=      5-min Rain = 0
KSM1 080120Z 06010KT 01/01 A3023 RMK A01 T00140006  RH  095%=      5-min Rain = 0
KSM1 080125Z 05008KT 01/01 A3024 RMK A01 T00140006  RH  096%=      5-min Rain = 0
KSM1 080130Z 05010KT 01/01 A3025 RMK A01 T00140006  RH  096%=      5-min Rain = 0
KSM1 080135Z 06010KT 01/01 A3026 RMK A01 T00140007  RH  096%=      5-min Rain = 0
KSM1 080140Z 06009KT 01/01 A3025 RMK A01 T00140006  RH  096%=      5-min Rain = 0
KSM1 080145Z 06010KT 01/01 A3025 RMK A01 T00140006  RH  096%=      5-min Rain = 0
KSM1 080150Z 06009KT 01/01 A3025 RMK A01 T00140006  RH  096%=      5-min Rain = 0
KSM1 080155Z 06010KT 01/01 A3025 RMK A01 T00130006  RH  096%=      5-min Rain = 0
KSM1 080200Z 06010KT 01/01 A3025 RMK A01 T00120006  RH  096%=      5-min Rain = 0
KSM1 080205Z 06010KT 01/01 A3026 RMK A01 T00120005  RH  096%=      5-min Rain = 0
KSM1 080210Z 06010KT 01/01 A3026 RMK A01 T00120005  RH  097%=      5-min Rain = 0
KSM1 080215Z 07011KT 01/00 A3026 RMK A01 T00110004  RH  097%=      5-min Rain = 0
KSM1 080220Z 07009KT 01/00 A3026 RMK A01 T00100004  RH  097%=      5-min Rain = 0.01
KSM1 080225Z 06010KT 01/00 A3025 RMK A01 T00100003  RH  097%=      5-min Rain = 0
KSM1 080230Z 06011KT 01/00 A3025 RMK A01 T00090003  RH  097%=      5-min Rain = 0.01
KSM1 080235Z 05009KT 01/00 A3026 RMK A01 T00090002  RH  097%=      5-min Rain = 0
KSM1 080240Z 05010KT 01/00 A3026 RMK A01 T00080002  RH  097%=      5-min Rain = 0.01
KSM1 080245Z 05009KT 01/00 A3026 RMK A01 T00070001  RH  097%=      5-min Rain = 0
KSM1 080250Z 05009KT 01/00 A3026 RMK A01 T00070001  RH  097%=      5-min Rain = 0
KSM1 080255Z 06009KT 01/00 A3026 RMK A01 T00070001  RH  097%=      5-min Rain = 0.01
KSM1 080300Z 06009KT 01/00 A3026 RMK A01 T000600-0  RH  097%=      5-min Rain = 0
KSM1 080305Z 05010KT 01/00 A3025 RMK A01 T000600-0  RH  097%=      5-min Rain = 0.01
KSM1 080310Z 05011KT 01/M00 A3025 RMK A01 T00051001  RH  097%=      5-min Rain = 0
KSM1 080315Z 05010KT 01/M00 A3025 RMK A01 T00051001  RH  097%=      5-min Rain = 0.01
KSM1 080320Z 05010KT 01/M00 A3025 RMK A01 T00051001  RH  097%=      5-min Rain = 0
KSM1 080325Z 04009KT 00/M00 A3025 RMK A01 T00041001  RH  097%=      5-min Rain = 0
KSM1 080330Z 04009KT 01/M00 A3025 RMK A01 T00051001  RH  097%=      5-min Rain = 0.01
KSM1 080335Z 05009KT 00/M00 A3025 RMK A01 T00041001  RH  097%=      5-min Rain = 0
KSM1 080340Z 05008KT 01/M00 A3026 RMK A01 T00051001  RH  097%=      5-min Rain = 0
KSM1 080345Z 05008KT 01/M00 A3025 RMK A01 T00051001  RH  097%=      5-min Rain = 0.01
KSM1 080350Z 04007KT 01/00 A3025 RMK A01 T000500-0  RH  097%=      5-min Rain = 0
KSM1 080355Z 04008KT 01/M00 A3025 RMK A01 T00051001  RH  097%=      5-min Rain = 0
KSM1 080400Z 03009KT 01/M00 A3025 RMK A01 T00051001  RH  097%=      5-min Rain = 0.01
KSM1 080405Z 03008KT 01/M00 A3024 RMK A01 T00051001  RH  097%=      5-min Rain = 0.01
KSM1 080410Z 02007KT 01/00 A3024 RMK A01 T000600-0  RH  097%=      5-min Rain = 0.01
KSM1 080415Z 02008KT 01/00 A3024 RMK A01 T00060000  RH  097%=      5-min Rain = 0
KSM1 080420Z 03008KT 01/00 A3025 RMK A01 T000500-0  RH  097%=      5-min Rain = 0.01
KSM1 080425Z 03009KT 01/M00 A3025 RMK A01 T00051001  RH  097%=      5-min Rain = 0
KSM1 080430Z 03006KT 01/00 A3025 RMK A01 T000600-0  RH  097%=      5-min Rain = 0.01
KSM1 080435Z 04006KT 01/00 A3026 RMK A01 T000600-0  RH  097%=      5-min Rain = 0
KSM1 080440Z 03004KT 01/M00 A3026 RMK A01 T00051001  RH  097%=      5-min Rain = 0.01
KSM1 080445Z 04005KT 01/M00 A3026 RMK A01 T00051001  RH  097%=      5-min Rain = 0
KSM1 080450Z 05006KT 00/M00 A3026 RMK A01 T00041002  RH  097%=      5-min Rain = 0
KSM1 080455Z 05006KT 00/M00 A3026 RMK A01 T00031003  RH  097%=      5-min Rain = 0
KSM1 080500Z 04005KT 00/M00 A3025 RMK A01 T00021004  RH  097%=      5-min Rain = 0
KSM1 080505Z 05005KT 00/M00 A3025 RMK A01 T00021004  RH  097%=      5-min Rain = 0
KSM1 080510Z 04004KT 00/M00 A3025 RMK A01 T00011004  RH  097%=      5-min Rain = 0
KSM1 080515Z 03005KT 00/M00 A3026 RMK A01 T00011004  RH  097%=      5-min Rain = 0
KSM1 080520Z 03005KT 00/M00 A3026 RMK A01 T00011004  RH  097%=      5-min Rain = 0
KSM1 080525Z 03005KT 00/M00 A3026 RMK A01 T00011004  RH  097%=      5-min Rain = 0
KSM1 080530Z 02005KT 00/M00 A3026 RMK A01 T00011004  RH  097%=      5-min Rain = 0
KSM1 080535Z 03004KT 00/M01 A3026 RMK A01 T00011005  RH  097%=      5-min Rain = 0
KSM1 080540Z 02004KT 00/M01 A3026 RMK A01 T00011005  RH  097%=      5-min Rain = 0
KSM1 080545Z 02005KT 00/01 A3026 RMK A01 T000000-5  RH  097%=      5-min Rain = 0
KSM1 080550Z 01005KT 00/01 A3026 RMK A01 T000000-5  RH  097%=      5-min Rain = 0
KSM1 080555Z 01006KT 00/01 A3025 RMK A01 T00-000-5  RH  097%=      5-min Rain = 0

Page generated in 0.0176 seconds.